Latest Weather Observations for Jervois

IDD60801

Issued at 6:35 pm CST Wednesday 23 April 2014 (issued every 30 minutes, with the page automatically refreshed every 10 minutes)

About weather observations | Map of weather stations | Latest weather observations for NT | Other Formats
Station Details ID: 015602 Name: JERVOIS Lat: -22.95 Lon: 136.14 Height: 328.0 m
Data from the previous 72 hours. | See also: Recent months at Jervois
Date/Time
CST
Temp
°C
App
Temp
°C
Dew
Point
Rel
Hum
%
Delta-T
°C
Wind Press
QNH
hPa
Press
MSL
hPa
Rain
since 9 am
mm
Dir
 
Spd
km/h
Gust
km/h
Spd
kts
Gust
kts
23/06:30pm 28.3 24.9 -0.6 15 13.7 SSE 7 11 4 6 1013.7 - 0.0
23/06:00pm 29.7 25.6 -3.4 11 15.1 SSE 9 13 5 7 1013.4 1012.0 0.0
23/05:30pm 30.8 26.5 -4.8 9 16.0 SSE 9 17 5 9 1013.1 - 0.0
23/05:00pm 31.1 26.3 -6.2 8 16.4 ESE 11 17 6 9 1013.1 - 0.0
23/04:30pm 31.3 26.4 -6.7 8 16.6 SSE 11 19 6 10 1013.1 - 0.0
23/04:00pm 32.1 25.6 -7.6 7 17.2 SSE 19 26 10 14 1013.2 - 0.0
23/03:30pm 31.8 26.2 -6.8 8 16.9 SE 15 24 8 13 1013.4 - 0.0
23/03:00pm 31.5 26.1 -8.0 7 16.9 E 13 26 7 14 1013.5 1012.1 0.0
23/02:30pm 31.5 26.3 -6.6 8 16.7 ESE 13 20 7 11 1013.9 - 0.0
23/02:00pm 31.6 27.1 -6.9 8 16.8 ESE 9 15 5 8 1014.3 - 0.0
23/01:30pm 31.2 26.7 -6.5 8 16.5 SSW 9 19 5 10 1014.8 - 0.0
23/01:00pm 30.8 26.4 -6.1 9 16.2 E 9 19 5 10 1015.2 - 0.0
23/12:30pm 29.9 24.8 -5.6 9 15.6 SSE 13 22 7 12 1015.8 - 0.0
23/12:00pm 29.9 23.4 -7.5 8 15.9 SSE 19 28 10 15 1016.3 1014.9 0.0
23/11:30am 29.6 23.9 -7.3 8 15.7 SSE 15 24 8 13 1016.7 - 0.0
23/11:00am 28.6 23.4 -5.8 10 14.9 SE 13 22 7 12 1017.3 - 0.0
23/10:30am 28.3 23.2 -5.1 11 14.6 SE 13 19 7 10 1017.4 - 0.0
23/10:00am 27.0 21.9 -5.2 11 13.9 E 13 19 7 10 1017.5 - 0.0
23/09:30am 25.7 21.0 -4.7 13 13.1 ESE 11 15 6 8 1017.4 - 0.0
23/09:00am 23.9 20.2 -2.6 17 11.7 SSE 7 11 4 6 1017.4 1016.0 0.0
23/08:30am 21.1 18.1 -2.1 21 10.1 S 4 7 2 4 1017.1 - 0.0
23/08:00am 18.8 15.3 -1.7 25 8.8 SW 7 9 4 5 1016.7 - 0.0
23/07:30am 16.3 11.8 -3.1 26 7.9 WSW 11 13 6 7 1016.5 - 0.0
23/07:00am 14.1 10.4 -2.5 31 6.7 SW 7 9 4 5 1016.3 - 0.0
23/06:30am 14.8 10.7 -3.2 28 7.2 WSW 9 11 5 6 1016.2 - 0.0
23/06:00am 14.6 11.0 -2.3 31 6.9 WSW 7 9 4 5 1015.9 1014.5 0.0
23/05:30am 13.1 9.8 -1.6 36 6.0 SSW 6 7 3 4 1015.8 - 0.0
23/05:00am 13.4 9.8 -2.2 34 6.3 S 7 7 4 4 1015.5 - 0.0
23/04:30am 14.0 11.3 -2.7 31 6.7 SSW 2 7 1 4 1015.5 - 0.0
23/04:00am 14.1 10.6 -2.5 31 6.7 S 6 7 3 4 1015.2 - 0.0
23/03:30am 15.2 12.9 -2.4 29 7.2 CALM 0 0 0 0 1015.4 - 0.0
23/03:00am 16.1 13.4 -2.6 27 7.7 SE 2 6 1 3 1015.5 1014.1 0.0
23/02:30am 17.9 14.6 0.4 30 7.8 SE 7 9 4 5 1015.5 - 0.0
23/02:00am 19.2 15.2 -2.0 23 9.1 SE 9 11 5 6 1015.7 - 0.0
23/01:30am 19.5 15.9 -2.2 23 9.3 SSE 7 9 4 5 1015.8 - 0.0
23/01:00am 20.4 16.8 -2.4 21 9.8 SE 7 11 4 6 1016.0 - 0.0
23/12:30am 21.6 17.5 -3.2 18 10.6 SE 9 15 5 8 1016.2 - 0.0
23/12:00am 23.0 17.9 -5.5 14 11.8 S 13 19 7 10 1016.3 1014.9 0.0
 
Date/Time
CST
Temp
°C
App
Temp
°C
Dew
Point
Rel
Hum
%
Delta-T
°C
Wind Press
QNH
hPa
Press
MSL
hPa
Rain
since 9 am
mm
Dir
 
Spd
km/h
Gust
km/h
Spd
kts
Gust
kts
22/11:30pm 22.7 17.7 -4.7 15 11.5 S 13 17 7 9 1016.6 - 0.0
22/11:00pm 22.6 17.6 -4.5 16 11.4 SSE 13 17 7 9 1016.6 - 0.0
22/10:30pm 23.5 18.5 -4.6 15 11.9 SSE 13 15 7 8 1016.7 - 0.0
22/10:00pm 23.9 19.3 -4.1 15 12.0 SSE 11 17 6 9 1016.7 - 0.0
22/09:30pm 24.3 18.7 -6.1 13 12.6 SSE 15 20 8 11 1016.6 - 0.0
22/09:00pm 25.0 20.1 -3.1 15 12.4 SSE 13 17 7 9 1016.5 1015.1 0.0
22/08:30pm 25.6 20.4 -3.0 15 12.7 SSE 15 20 8 11 1016.2 - 0.0
22/08:00pm 24.7 21.0 -0.3 19 11.6 SSE 9 11 5 6 1016.1 - 0.0
22/07:30pm 25.9 22.5 -0.9 17 12.4 S 7 11 4 6 1015.6 - 0.0
22/07:00pm 26.7 23.5 1.0 18 12.4 SSE 7 9 4 5 1015.2 - 0.0
22/06:30pm 28.5 25.4 0.3 16 13.6 SSW 6 9 3 5 1014.6 - 0.0
22/06:00pm 29.9 26.0 -1.8 12 14.9 S 9 13 5 7 1014.3 1013.0 0.0
22/05:30pm 31.0 27.9 0.2 14 15.1 SW 6 11 3 6 1014.1 - 0.0
22/05:00pm 32.0 27.8 -3.7 10 16.5 SSW 9 13 5 7 1014.0 - 0.0
22/04:30pm 31.8 27.4 -2.3 11 16.1 S 11 17 6 9 1013.9 - 0.0
22/04:00pm 31.9 27.4 -3.0 10 16.3 SE 11 20 6 11 1014.0 - 0.0
22/03:30pm 31.7 27.0 -5.3 9 16.6 SSW 11 20 6 11 1014.1 - 0.0
22/03:00pm 31.9 28.1 -1.0 12 15.9 SSW 9 17 5 9 1014.1 1012.8 0.0
22/02:30pm 32.0 26.9 -4.9 9 16.7 WSW 13 22 7 12 1014.3 - 0.0
22/02:00pm 32.2 28.9 0.2 13 15.8 WSW 7 15 4 8 1014.8 - 0.0
22/01:30pm 31.6 26.5 -5.1 9 16.5 SSW 13 20 7 11 1015.3 - 0.0
22/01:00pm 31.3 26.7 -3.8 10 16.1 S 11 19 6 10 1015.8 - 0.0
22/12:30pm 31.4 26.9 -3.6 10 16.1 ESE 11 22 6 12 1016.3 - 0.0
22/12:00pm 31.3 26.7 -4.4 9 16.2 SSE 11 15 6 8 1016.8 1015.5 0.0
22/11:30am 30.5 25.6 -3.7 10 15.6 SE 13 20 7 11 1017.3 - 0.0
22/11:00am 29.6 25.7 -1.3 13 14.6 E 9 17 5 9 1017.7 - 0.0
22/10:30am 29.0 24.1 -3.0 12 14.6 E 13 20 7 11 1018.1 - 0.0
22/10:00am 28.1 23.4 -1.6 14 13.8 E 13 19 7 10 1018.3 - 0.0
22/09:30am 26.6 21.9 -1.8 15 13.0 E 13 20 7 11 1018.4 - 0.0
22/09:00am 25.0 19.6 -1.3 17 12.0 E 17 24 9 13 1018.4 1016.9 0.0
22/08:30am 23.1 19.5 0.5 22 10.5 ESE 9 11 5 6 1018.1 - 0.0
22/08:00am 18.3 16.5 3.6 37 7.0 E 2 6 1 3 1017.8 - 0.0
22/07:30am 14.6 12.7 0.5 38 6.1 CALM 0 2 0 1 1017.5 - 0.0
22/07:00am 14.2 11.0 0.5 39 5.9 SW 7 9 4 5 1017.4 - 0.0
22/06:30am 13.6 10.5 1.2 43 5.4 WSW 7 9 4 5 1017.2 - 0.0
22/06:00am 13.7 10.5 0.7 41 5.6 SW 7 9 4 5 1017.0 1015.5 0.0
22/05:30am 13.4 11.1 0.2 40 5.6 W 2 6 1 3 1016.8 - 0.0
22/05:00am 14.7 11.5 1.0 39 6.0 WSW 7 11 4 6 1016.7 - 0.0
22/04:30am 15.0 12.0 0.8 38 6.2 W 6 7 3 4 1016.5 - 0.0
22/04:00am 16.5 14.2 0.3 33 7.1 WNW 2 9 1 5 1016.3 - 0.0
22/03:30am 17.3 13.5 -0.4 30 7.7 W 9 13 5 7 1016.0 - 0.0
22/03:00am 17.3 13.6 0.0 31 7.6 S 9 11 5 6 1015.8 1014.5 0.0
22/02:30am 17.6 14.3 -0.2 30 7.8 S 7 11 4 6 1016.3 - 0.0
22/02:00am 17.9 14.6 0.0 30 7.9 SSW 7 11 4 6 1016.5 - 0.0
22/01:30am 18.9 15.1 -1.1 26 8.7 SSW 9 11 5 6 1016.7 - 0.0
22/01:00am 18.6 14.7 -1.3 26 8.6 SSW 9 13 5 7 1016.8 - 0.0
22/12:30am 18.4 14.5 -1.7 25 8.6 SW 9 11 5 6 1017.0 - 0.0
22/12:00am 16.4 13.4 -1.7 29 7.6 SSW 4 9 2 5 1016.9 1015.5 0.0
 
Date/Time
CST
Temp
°C
App
Temp
°C
Dew
Point
Rel
Hum
%
Delta-T
°C
Wind Press
QNH
hPa
Press
MSL
hPa
Rain
since 9 am
mm
Dir
 
Spd
km/h
Gust
km/h
Spd
kts
Gust
kts
21/11:30pm 18.7 15.6 0.0 28 8.3 SSW 6 7 3 4 1016.8 - 0.0
21/11:00pm 20.5 16.6 -1.8 22 9.7 SSW 9 13 5 7 1016.9 - 0.0
21/10:30pm 20.2 17.0 -0.4 25 9.2 SSE 6 7 3 4 1017.0 - 0.0
21/10:00pm 22.5 18.7 -1.1 20 10.6 SSE 9 13 5 7 1016.9 - 0.0
21/09:30pm 23.4 19.5 -1.6 19 11.2 SSE 9 13 5 7 1016.9 - 0.0
21/09:00pm 23.4 19.2 -1.2 19 11.1 SE 11 13 6 7 1016.8 1015.4 0.0
21/08:30pm 19.9 16.5 1.9 30 8.4 SSE 9 11 5 6 1016.6 - 0.0
21/08:00pm 20.7 17.4 -0.9 23 9.6 SSE 6 7 3 4 1016.4 - 0.0
21/07:30pm 21.9 18.7 -0.4 22 10.1 S 6 6 3 3 1016.1 - 0.0
21/07:00pm 24.1 21.1 0.7 21 11.0 S 6 7 3 4 1015.8 - 0.0
21/06:30pm 26.5 23.3 -0.7 17 12.7 S 6 7 3 4 1015.6 - 0.0
21/06:00pm 29.0 25.6 -1.9 13 14.4 S 6 11 3 6 1015.2 1013.8 0.0
21/05:30pm 30.2 26.9 -1.5 13 15.0 W 6 11 3 6 1014.9 - 0.0
21/05:00pm 29.9 26.0 -1.4 13 14.8 ESE 9 20 5 11 1014.4 - 0.0
21/04:30pm 31.4 27.5 -4.6 9 16.3 WNW 7 13 4 7 1014.4 - 0.0
21/04:00pm 31.3 27.4 -4.9 9 16.3 WSW 7 17 4 9 1014.4 - 0.0
21/03:30pm 30.6 26.7 -1.8 12 15.3 NW 9 15 5 8 1014.4 - 0.0
21/03:00pm 30.6 26.5 -2.8 11 15.5 E 9 17 5 9 1014.8 1013.4 0.0
21/02:30pm 31.3 27.1 -3.8 10 16.1 ESE 9 15 5 8 1015.1 - 0.0
21/02:00pm 29.9 26.1 -3.4 11 15.2 E 7 17 4 9 1015.5 - 0.0
21/01:30pm 29.7 25.8 -4.5 10 15.3 SSE 7 19 4 10 1015.9 - 0.0
21/01:00pm 29.5 24.9 -4.1 11 15.1 S 11 15 6 8 1016.4 - 0.0
21/12:30pm 28.8 25.3 -3.0 12 14.5 SE 6 13 3 7 1016.9 - 0.0
21/12:00pm 27.4 22.5 -3.0 13 13.7 SE 13 24 7 13 1017.5 1016.2 0.0
21/11:30am 27.3 21.2 -4.3 12 13.9 ESE 19 22 10 12 1018.1 - 0.0
21/11:00am 27.2 21.9 -3.6 13 13.7 ESE 15 22 8 12 1018.8 - 0.0
21/10:30am 26.2 21.0 -2.9 14 13.0 E 15 20 8 11 1019.1 - 0.0
21/10:00am 25.4 19.8 -2.6 15 12.5 E 17 24 9 13 1019.4 - 0.0
21/09:30am 24.0 18.5 -2.0 17 11.6 E 17 20 9 11 1019.4 - 0.0
21/09:00am 22.6 18.0 -1.4 20 10.7 E 13 20 7 11 1019.3 1017.9 0.0
21/08:30am 20.0 17.0 0.6 27 8.8 ESE 6 9 3 5 1019.1 - 0.0
21/08:00am 16.9 14.6 0.3 32 7.3 S 2 9 1 5 1019.0 - 0.0
21/07:30am 14.8 11.5 -0.2 36 6.4 SSW 7 9 4 5 1018.7 - 0.0
21/07:00am 11.9 8.5 -0.5 42 5.1 SSW 7 9 4 5 1018.3 - 0.0
21/06:30am 11.6 8.3 0.4 46 4.7 SSW 7 11 4 6 1017.7 - 0.0
21/06:00am 12.0 8.6 -0.3 42 5.1 S 7 9 4 5 1017.4 1016.0 0.0
21/05:30am 12.4 9.0 -0.3 41 5.3 SSE 7 11 4 6 1017.0 - 0.0
21/05:00am 11.3 8.0 -1.0 42 5.0 S 6 9 3 5 1016.8 - 0.0
21/04:30am 11.5 8.3 -0.7 43 5.0 S 6 7 3 4 1016.7 - 0.0
21/04:00am 11.3 8.6 0.0 45 4.7 S 4 7 2 4 1016.6 - 0.0
21/03:30am 12.1 9.0 -0.1 43 5.1 SSW 6 7 3 4 1016.8 - 0.0
21/03:00am 12.7 9.5 -0.5 40 5.5 S 6 7 3 4 1016.9 1015.4 0.0
21/02:30am 13.2 10.2 0.6 42 5.4 SSE 6 7 3 4 1016.9 - 0.0
21/02:00am 13.5 10.4 0.1 40 5.7 SSE 6 7 3 4 1017.2 - 0.0
21/01:30am 14.1 11.1 0.7 40 5.8 ESE 6 7 3 4 1017.5 - 0.0
21/01:00am 15.2 12.5 0.1 35 6.5 ESE 4 6 2 3 1017.6 - 0.0
21/12:30am 16.2 13.0 -0.2 32 7.1 E 6 7 3 4 1017.5 - 0.0
21/12:00am 16.8 13.6 0.5 33 7.2 ESE 7 9 4 5 1017.8 1016.5 0.0
 
Date/Time
CST
Temp
°C
App
Temp
°C
Dew
Point
Rel
Hum
%
Delta-T
°C
Wind Press
QNH
hPa
Press
MSL
hPa
Rain
since 9 am
mm
Dir
 
Spd
km/h
Gust
km/h
Spd
kts
Gust
kts
20/11:30pm 17.6 14.7 2.8 37 6.9 ESE 7 9 4 5 1018.0 - 0.0
20/11:00pm 17.9 14.4 1.4 33 7.5 ESE 9 11 5 6 1018.2 - 0.0
20/10:30pm 17.2 15.2 2.1 36 6.9 E 2 7 1 4 1018.3 - 0.0
20/10:00pm 18.8 16.1 2.6 34 7.6 E 6 7 3 4 1018.2 - 0.0
20/09:30pm 20.4 17.4 1.7 29 8.7 ESE 7 9 4 5 1018.3 - 0.0
20/09:00pm 21.0 17.3 0.0 24 9.5 ESE 9 11 5 6 1018.1 1016.7 0.0
20/08:30pm 21.8 18.2 0.5 24 9.8 SE 9 11 5 6 1017.8 - 0.0
20/08:00pm 22.5 19.1 -0.3 22 10.4 SE 7 11 4 6 1017.5 - 0.0
20/07:30pm 23.6 19.8 -0.4 20 11.0 SE 9 13 5 7 1017.2 - 0.0
20/07:00pm 24.7 20.5 -1.2 18 11.8 ESE 11 13 6 7 1016.9 - 0.0

Other Formats:

Comma delimited format used in spreadsheet applications
http://www.bom.gov.au/fwo/IDD60801/IDD60801.94327.axf

JavaScript Object Notation format (JSON) in row-major order
http://www.bom.gov.au/fwo/IDD60801/IDD60801.94327.json